Time;durP1;ratioP1;P1;durP2;ratioP2;P2;SDS_P1;SDS_P2;PMS_P1;PMS_P2;Temp;Humidity;BMP_temperature;BMP_pressure;BME280_temperature;BME280_humidity;BME280_pressure;Samples;Min_cycle;Max_cycle;Signal;HPM_P1;HPM_P2
2022/12/14 00:00:58;;;;;;;46.85;22.40;;;;;;;3.83;60.16;100851.06;5027151;28;20409;-76
2022/12/14 00:03:23;;;;;;;40.05;21.60;;;;;;;3.73;60.21;100841.84;5029509;28;20091;-76
2022/12/14 00:05:49;;;;;;;35.33;19.20;;;;;;;3.89;59.76;100863.19;5041956;28;20452;-76
2022/12/14 00:08:16;;;;;;;41.80;21.25;;;;;;;3.88;59.23;100857.03;5049034;28;20037;-74
2022/12/14 00:10:43;;;;;;;40.20;22.02;;;;;;;3.99;59.02;100867.13;5048876;28;20416;-75
2022/12/14 00:13:11;;;;;;;41.08;20.85;;;;;;;3.83;58.97;100827.13;5049009;28;20403;-73
2022/12/14 00:15:37;;;;;;;41.67;22.00;;;;;;;3.96;59.02;100865.47;5049422;28;20051;-77
2022/12/14 00:18:03;;;;;;;54.45;22.98;;;;;;;3.91;59.08;100877.28;5047126;28;20405;-75
2022/12/14 00:20:29;;;;;;;42.83;22.15;;;;;;;3.75;60.05;100866.56;5032996;28;20040;-74
2022/12/14 00:22:56;;;;;;;41.63;21.75;;;;;;;3.88;60.18;100888.97;5050055;28;20584;-75
2022/12/14 00:25:21;;;;;;;56.05;24.63;;;;;;;3.56;60.17;100860.41;5049851;28;20033;-76
2022/12/14 00:27:47;;;;;;;43.40;23.92;;;;;;;3.93;60.58;100907.34;5051095;28;20648;-75
2022/12/14 00:30:14;;;;;;;60.95;24.17;;;;;;;3.92;60.63;100901.16;5050439;28;20136;-75
2022/12/14 00:32:40;;;;;;;46.13;23.73;;;;;;;3.95;60.46;100905.44;5049624;28;20055;-76
2022/12/14 00:35:10;;;;;;;64.18;24.75;;;;;;;3.81;60.98;100907.03;5051470;28;20483;-75
2022/12/14 00:37:36;;;;;;;54.75;24.30;;;;;;;3.65;61.42;100915.81;5053972;28;20113;-75
2022/12/14 00:40:03;;;;;;;51.72;26.17;;;;;;;3.54;61.96;100896.84;5053599;28;20040;-78
2022/12/14 00:42:28;;;;;;;55.40;24.85;;;;;;;3.38;61.90;100850.66;5051416;28;20120;-74
2022/12/14 00:44:53;;;;;;;47.80;25.75;;;;;;;3.62;62.27;100907.97;5051855;28;20036;-74
2022/12/14 00:47:19;;;;;;;51.10;25.33;;;;;;;3.45;62.21;100873.38;5048794;28;20125;-77
2022/12/14 00:49:44;;;;;;;54.22;25.38;;;;;;;3.68;62.79;100905.03;5051371;28;20031;-75
2022/12/14 00:52:10;;;;;;;60.80;24.67;;;;;;;3.65;62.22;100905.16;5051400;28;20041;-75
2022/12/14 00:54:35;;;;;;;46.53;21.98;;;;;;;3.24;62.06;100849.53;5050984;28;20021;-74
2022/12/14 00:57:00;;;;;;;55.35;24.27;;;;;;;3.48;62.29;100899.81;5051263;28;20025;-75
2022/12/14 00:59:26;;;;;;;68.15;26.90;;;;;;;3.47;62.54;100914.91;5051326;28;20032;-77
2022/12/14 01:01:51;;;;;;;63.63;25.60;;;;;;;3.15;62.31;100884.50;5050789;28;20021;-74
2022/12/14 01:04:18;;;;;;;55.92;25.83;;;;;;;3.33;62.83;100932.44;5051299;28;20021;-76
2022/12/14 01:06:44;;;;;;;50.92;25.40;;;;;;;3.14;62.99;100895.22;5050700;28;20510;-76
2022/12/14 01:09:10;;;;;;;56.25;25.85;;;;;;;3.35;62.70;100930.56;5050992;28;20033;-76
2022/12/14 01:11:35;;;;;;;51.05;24.08;;;;;;;3.35;62.46;100927.91;5050935;28;20086;-76
2022/12/14 01:14:01;;;;;;;41.53;24.27;;;;;;;3.19;62.54;100925.97;5050628;28;20032;-76
2022/12/14 01:16:26;;;;;;;61.45;26.25;;;;;;;3.12;63.02;100935.13;5049516;28;20035;-75
2022/12/14 01:18:52;;;;;;;47.60;25.17;;;;;;;3.06;63.39;100946.06;5050462;28;20090;-75
2022/12/14 01:21:20;;;;;;;50.22;24.02;;;;;;;2.87;63.36;100915.97;5050394;28;20123;-76
2022/12/14 01:23:50;;;;;;;46.90;24.17;;;;;;;3.13;63.22;100944.84;5049545;28;20079;-77
2022/12/14 01:26:17;;;;;;;49.83;25.63;;;;;;;3.05;63.29;100933.72;5050469;28;20033;-76
2022/12/14 01:28:43;;;;;;;49.63;23.77;;;;;;;2.98;63.77;100948.19;5050469;28;20508;-75
2022/12/14 01:31:14;;;;;;;41.78;21.63;;;;;;;3.03;63.50;100947.97;5050752;28;20079;-76
2022/12/14 01:33:40;;;;;;;50.40;23.13;;;;;;;3.05;63.15;100948.78;5050563;28;20101;-76
2022/12/14 01:36:08;;;;;;;57.90;23.33;;;;;;;2.80;62.90;100919.81;5050173;28;20108;-74
2022/12/14 01:38:34;;;;;;;44.58;22.13;;;;;;;2.95;62.60;100951.00;5050399;28;20033;-74
2022/12/14 01:40:59;;;;;;;53.75;24.08;;;;;;;2.99;62.38;100951.72;5050722;28;20109;-75
2022/12/14 01:44:04;;;;;;;36.58;22.13;;;;;;;2.89;62.51;100943.31;5051477;28;20028;-76
2022/12/14 01:46:35;;;;;;;42.78;22.25;;;;;;;3.02;62.21;100943.63;5030377;28;20045;-77
2022/12/14 01:49:15;;;;;;;49.47;22.35;;;;;;;3.02;62.55;100949.81;5027907;28;20048;-76
2022/12/14 01:51:46;;;;;;;43.60;22.30;;;;;;;3.12;62.13;100937.78;5030480;28;20524;-75
2022/12/14 01:54:13;;;;;;;40.03;22.33;;;;;;;3.12;61.47;100929.00;5027648;28;20034;-75
2022/12/14 01:56:41;;;;;;;66.90;24.60;;;;;;;2.94;61.39;100893.47;5027776;28;20033;-76
2022/12/14 01:59:13;;;;;;;52.92;21.10;;;;;;;3.23;61.25;100927.56;5027652;28;20033;-76
2022/12/14 02:01:38;;;;;;;66.57;23.00;;;;;;;3.24;61.09;100923.94;5027767;28;20033;-75
2022/12/14 02:04:04;;;;;;;43.72;22.40;;;;;;;3.25;60.91;100923.03;5027386;28;20046;-75
2022/12/14 02:06:35;;;;;;;38.38;21.73;;;;;;;3.27;61.26;100929.13;5027505;28;20037;-76
2022/12/14 02:09:03;;;;;;;46.03;21.70;;;;;;;3.10;61.47;100878.56;5027507;28;20516;-76
2022/12/14 02:11:43;;;;;;;48.10;23.50;;;;;;;3.13;61.09;100883.72;5027340;28;20501;-76
2022/12/14 02:14:09;;;;;;;44.40;23.30;;;;;;;3.40;60.89;100912.59;5027335;28;20528;-74
2022/12/14 02:16:34;;;;;;;44.55;20.70;;;;;;;3.53;60.70;100924.38;5027385;28;20045;-76
2022/12/14 02:19:00;;;;;;;57.72;23.52;;;;;;;3.51;60.92;100931.56;5027184;28;20060;-75
2022/12/14 02:22:03;;;;;;;42.35;20.80;;;;;;;3.46;60.53;100928.25;5027159;28;20120;-73
2022/12/14 02:24:50;;;;;;;49.45;22.13;;;;;;;3.48;60.76;100921.94;5001920;28;20087;-75
2022/12/14 02:27:31;;;;;;;39.25;21.15;;;;;;;3.50;60.55;100914.75;5007111;28;20048;-74
2022/12/14 02:30:19;;;;;;;44.08;21.80;;;;;;;3.41;61.13;100911.66;5007066;28;20034;-74
2022/12/14 02:33:06;;;;;;;49.60;21.95;;;;;;;3.27;61.44;100922.97;5006869;28;20052;-75
2022/12/14 02:35:46;;;;;;;62.63;25.05;;;;;;;3.29;61.39;100913.09;5006917;28;20034;-74
2022/12/14 02:38:27;;;;;;;57.83;24.15;;;;;;;3.19;61.39;100915.34;5007114;28;20033;-73
2022/12/14 02:41:37;;;;;;;45.08;23.05;;;;;;;3.17;61.75;100911.91;5006844;28;20168;-75
2022/12/14 02:44:41;;;;;;;48.65;23.48;;;;;;;3.14;61.82;100912.03;5006479;28;20049;-74
2022/12/14 02:47:12;;;;;;;47.30;24.20;;;;;;;3.19;61.72;100904.69;4949552;29;20131;-74
2022/12/14 02:50:08;;;;;;;45.92;23.20;;;;;;;3.22;62.01;100903.69;4951181;29;20043;-74
2022/12/14 02:52:50;;;;;;;54.97;24.10;;;;;;;3.13;62.10;100901.47;4948583;29;20056;-74
2022/12/14 02:55:29;;;;;;;45.45;23.92;;;;;;;2.99;62.02;100864.94;4948845;29;20043;-76
2022/12/14 02:58:06;;;;;;;50.75;22.90;;;;;;;3.19;61.41;100906.50;4962908;28;20057;-74
2022/12/14 03:00:35;;;;;;;40.13;20.05;;;;;;;3.08;61.70;100901.69;5006716;28;20036;-74
2022/12/14 03:03:03;;;;;;;44.97;23.20;;;;;;;3.00;62.05;100905.59;5006648;28;20049;-73
2022/12/14 03:05:29;;;;;;;50.17;23.80;;;;;;;3.08;62.27;100916.75;5006638;28;20387;-74
2022/12/14 03:08:03;;;;;;;56.95;25.00;;;;;;;3.03;62.02;100924.94;4974242;28;20049;-74
2022/12/14 03:11:00;;;;;;;47.22;22.92;;;;;;;2.85;62.42;100931.09;5006629;28;20037;-72
2022/12/14 03:13:35;;;;;;;47.88;23.67;;;;;;;2.72;62.81;100940.53;4948263;29;20043;-73
2022/12/14 03:16:28;;;;;;;40.72;22.17;;;;;;;2.79;62.71;100939.31;4948424;29;20035;-73
2022/12/14 03:19:00;;;;;;;44.10;23.10;;;;;;;2.67;62.54;100900.91;4932335;29;20039;-73
2022/12/14 03:21:34;;;;;;;44.72;23.13;;;;;;;2.69;62.49;100925.59;4948800;29;20027;-74
2022/12/14 03:24:07;;;;;;;39.95;21.70;;;;;;;2.82;62.65;100947.16;4958298;28;20039;-72
2022/12/14 03:26:38;;;;;;;52.70;25.60;;;;;;;2.74;62.18;100942.19;4967548;28;20086;-73
2022/12/14 03:29:09;;;;;;;50.90;24.48;;;;;;;2.70;62.64;100947.69;4967980;28;20041;-74
2022/12/14 03:31:45;;;;;;;66.55;26.23;;;;;;;2.69;63.09;100933.56;4967696;28;20050;-74
2022/12/14 03:34:14;;;;;;;51.63;23.33;;;;;;;2.61;63.37;100938.34;4968956;28;20038;-74
2022/12/14 03:36:48;;;;;;;48.65;23.83;;;;;;;2.76;63.50;100942.13;4968709;28;20035;-73
2022/12/14 03:39:21;;;;;;;54.22;24.27;;;;;;;2.82;63.48;100947.16;4968126;28;20490;-73
2022/12/14 03:42:11;;;;;;;63.63;24.77;;;;;;;2.88;63.47;100938.03;4967617;28;20023;-72
2022/12/14 03:44:58;;;;;;;61.15;25.98;;;;;;;2.92;63.44;100936.97;4967846;28;20042;-73
2022/12/14 03:48:02;;;;;;;48.63;26.00;;;;;;;2.95;63.41;100937.72;4970362;28;20030;-75
2022/12/14 03:50:45;;;;;;;57.72;26.95;;;;;;;3.03;63.71;100934.69;5017160;28;20045;-73
2022/12/14 03:53:21;;;;;;;49.97;26.08;;;;;;;3.07;63.53;100929.19;5035209;28;20037;-73
2022/12/14 03:56:30;;;;;;;54.72;25.45;;;;;;;3.15;63.29;100929.69;5033761;28;20106;-74
2022/12/14 03:59:34;;;;;;;62.40;27.38;;;;;;;3.24;62.85;100923.94;4970733;28;20561;-73
2022/12/14 04:02:06;;;;;;;64.90;25.70;;;;;;;3.29;62.99;100927.28;4912689;29;20028;-73
2022/12/14 04:04:48;;;;;;;53.60;24.30;;;;;;;3.32;62.81;100928.03;4913146;29;20044;-72
2022/12/14 04:07:21;;;;;;;79.20;28.70;;;;;;;3.23;62.76;100919.59;4913210;29;20631;-72
2022/12/14 04:18:55;;;;;;;83.45;25.98;;;;;;;3.21;63.11;100908.13;4913275;29;20047;-73
2022/12/14 04:21:27;;;;;;;49.42;24.60;;;;;;;3.38;63.39;100925.09;4913051;29;20048;-74
2022/12/14 04:27:09;;;;;;;63.50;28.85;;;;;;;3.50;64.08;100922.72;4912943;29;20104;-76
2022/12/14 04:29:56;;;;;;;54.80;26.48;;;;;;;3.46;63.59;100917.63;4912960;29;20036;-74
2022/12/14 04:32:33;;;;;;;61.97;29.92;;;;;;;3.41;63.65;100887.75;4913207;29;20040;-78
2022/12/14 04:35:19;;;;;;;68.10;32.42;;;;;;;3.67;63.58;100927.25;4978397;28;20068;-75
2022/12/14 04:37:52;;;;;;;72.55;30.95;;;;;;;3.68;62.74;100924.50;5014070;28;20036;-76
2022/12/14 04:40:22;;;;;;;69.20;29.92;;;;;;;3.55;62.48;100933.13;5055954;28;20186;-74
2022/12/14 04:42:56;;;;;;;75.30;31.83;;;;;;;3.37;62.52;100926.03;5055550;28;20233;-75
2022/12/14 04:45:27;;;;;;;65.47;30.17;;;;;;;3.40;62.58;100912.59;5052973;28;20033;-74
2022/12/14 04:48:24;;;;;;;79.38;31.63;;;;;;;3.48;62.72;100923.75;5062002;28;20110;-73
2022/12/14 04:50:57;;;;;;;76.40;33.33;;;;;;;3.55;62.42;100911.84;5039077;28;22604;-74
2022/12/14 04:53:26;;;;;;;65.78;34.50;;;;;;;3.62;62.39;100915.97;5030932;28;20046;-72
2022/12/14 04:56:09;;;;;;;81.82;34.15;;;;;;;3.64;61.79;100916.75;5030618;28;20103;-74
2022/12/14 04:58:35;;;;;;;73.10;34.55;;;;;;;3.55;61.75;100927.81;5030864;28;20029;-76
2022/12/14 05:01:22;;;;;;;77.82;33.30;;;;;;;3.54;61.97;100912.81;5030101;28;20386;-76
2022/12/14 05:04:01;;;;;;;79.03;33.47;;;;;;;3.37;61.47;100918.03;5028915;28;20087;-76
2022/12/14 05:06:36;;;;;;;102.55;37.45;;;;;;;3.25;61.83;100931.00;5028443;28;20212;-76
2022/12/14 05:09:01;;;;;;;80.38;37.25;;;;;;;3.13;62.05;100914.75;5027970;28;20037;-74
2022/12/14 05:11:34;;;;;;;70.22;34.63;;;;;;;3.06;62.30;100908.84;5028341;28;20033;-74
2022/12/14 05:13:59;;;;;;;;;;;;;;;3.06;62.16;100911.50;5028554;28;20041;-74
2022/12/14 05:16:25;;;;;;;76.70;33.90;;;;;;;2.75;62.21;100872.19;5028088;28;19947;-73
2022/12/14 05:18:51;;;;;;;72.25;34.97;;;;;;;2.88;62.55;100904.38;5028273;28;20029;-75
2022/12/14 05:24:02;;;;;;;91.18;36.17;;;;;;;3.02;63.00;100909.06;5028206;28;20036;-75
2022/12/14 05:26:29;;;;;;;87.63;36.80;;;;;;;3.09;63.35;100898.09;5027988;28;20026;-74
2022/12/14 05:28:55;;;;;;;80.10;33.78;;;;;;;3.22;63.53;100899.25;5049610;28;20515;-73
2022/12/14 05:31:21;;;;;;;77.38;35.97;;;;;;;3.30;62.95;100906.88;5049921;28;20028;-73
2022/12/14 05:33:47;;;;;;;107.25;39.65;;;;;;;3.42;63.15;100913.41;5050106;28;20043;-73
2022/12/14 05:36:12;;;;;;;89.13;39.55;;;;;;;3.57;62.34;100910.00;5048512;28;20397;-73
2022/12/14 05:38:37;;;;;;;117.05;39.97;;;;;;;3.73;62.49;100911.84;5049978;28;20044;-72
2022/12/14 05:41:03;;;;;;;84.93;32.75;;;;;;;3.62;62.58;100881.38;5049980;28;20145;-73
2022/12/14 05:43:28;;;;;;;94.38;35.33;;;;;;;3.88;62.54;100917.34;5049971;28;20029;-73
2022/12/14 05:46:01;;;;;;;87.60;35.83;;;;;;;3.97;62.54;100920.44;5049810;28;20033;-73
2022/12/14 05:48:27;;;;;;;102.00;37.58;;;;;;;4.03;62.55;100920.13;5050118;28;20025;-73
2022/12/14 05:50:53;;;;;;;101.97;37.15;;;;;;;4.16;62.20;100926.53;5050131;28;20052;-73
2022/12/14 05:53:18;;;;;;;146.88;43.97;;;;;;;4.29;62.30;100911.69;5050386;28;20029;-73
2022/12/14 05:55:48;;;;;;;133.00;42.00;;;;;;;4.32;62.30;100914.19;5049836;28;20025;-73
2022/12/14 05:58:13;;;;;;;89.07;39.58;;;;;;;4.39;62.15;100907.59;5049491;28;20429;-74
2022/12/14 06:00:39;;;;;;;160.10;51.17;;;;;;;4.49;62.20;100912.47;5054213;28;20029;-73
2022/12/14 06:03:05;;;;;;;152.50;53.20;;;;;;;4.56;62.27;100919.16;5054260;28;20033;-74
2022/12/14 06:05:30;;;;;;;153.63;52.83;;;;;;;4.64;62.20;100917.84;5051505;28;20029;-73
2022/12/14 06:07:56;;;;;;;169.05;51.03;;;;;;;4.70;62.45;100927.31;5049364;28;20032;-73
2022/12/14 06:10:22;;;;;;;106.45;42.88;;;;;;;4.80;62.36;100925.91;5049508;28;20104;-74
2022/12/14 06:12:47;;;;;;;97.70;38.88;;;;;;;4.76;61.71;100935.84;5049377;28;20409;-77
2022/12/14 06:15:13;;;;;;;123.72;42.85;;;;;;;4.80;61.53;100940.06;5047760;28;20124;-73
2022/12/14 06:17:45;;;;;;;150.13;44.42;;;;;;;4.81;61.76;100912.47;5049231;28;20021;-73
2022/12/14 06:20:12;;;;;;;120.53;42.88;;;;;;;5.09;61.28;100943.84;5049285;28;20036;-74
2022/12/14 06:22:39;;;;;;;117.05;41.58;;;;;;;5.18;61.17;100950.50;5049384;28;20025;-73
2022/12/14 06:25:05;;;;;;;91.78;35.63;;;;;;;5.15;60.50;100945.31;5049180;28;20035;-74
2022/12/14 06:27:31;;;;;;;110.70;36.83;;;;;;;5.24;60.60;100950.16;5049448;28;20025;-73
2022/12/14 06:29:57;;;;;;;90.13;37.45;;;;;;;5.13;60.51;100902.78;5049035;28;20024;-74
2022/12/14 06:32:22;;;;;;;102.82;38.03;;;;;;;5.35;60.41;100937.97;5049549;28;20037;-74
2022/12/14 06:34:48;;;;;;;122.55;37.92;;;;;;;5.45;59.98;100933.84;5049137;28;20033;-74
2022/12/14 06:37:13;;;;;;;154.82;40.28;;;;;;;5.52;60.28;100931.72;5049295;28;20025;-73
2022/12/14 06:39:39;;;;;;;104.60;33.55;;;;;;;5.57;60.32;100939.44;5048866;28;20507;-74
2022/12/14 06:42:05;;;;;;;122.22;39.00;;;;;;;5.57;60.58;100936.75;5048795;28;20033;-73
2022/12/14 06:44:30;;;;;;;100.93;35.03;;;;;;;5.39;60.47;100934.19;5048715;28;20102;-74
2022/12/14 06:46:56;;;;;;;96.05;36.95;;;;;;;5.59;60.73;100946.44;5048737;28;20025;-73
2022/12/14 06:49:22;;;;;;;89.70;39.35;;;;;;;5.69;60.73;100949.44;5048891;28;20033;-73
2022/12/14 06:51:47;;;;;;;97.13;38.40;;;;;;;5.76;60.46;100943.66;5048731;28;20044;-74
2022/12/14 06:54:14;;;;;;;131.35;48.33;;;;;;;5.61;60.63;100907.19;5048909;28;20017;-73
2022/12/14 06:56:41;;;;;;;133.73;45.33;;;;;;;5.97;60.43;100954.97;5049075;28;20120;-75
2022/12/14 06:59:10;;;;;;;176.75;52.92;;;;;;;6.06;60.39;100949.09;5048663;28;20499;-73
2022/12/14 07:01:36;;;;;;;117.82;50.42;;;;;;;6.16;60.35;100939.59;5049033;28;20174;-74
2022/12/14 07:04:02;;;;;;;145.07;50.58;;;;;;;6.25;60.38;100939.06;5050623;28;20040;-72
2022/12/14 07:06:33;;;;;;;117.30;50.13;;;;;;;6.29;60.16;100939.75;5051971;28;20043;-75
2022/12/14 07:08:59;;;;;;;174.27;46.58;;;;;;;6.33;60.57;100944.81;5050924;28;20029;-73
2022/12/14 07:11:26;;;;;;;141.75;47.42;;;;;;;6.28;60.61;100938.03;5048624;28;20165;-73
2022/12/14 07:13:52;;;;;;;124.40;45.35;;;;;;;6.40;61.11;100940.84;5048924;28;20369;-73
2022/12/14 07:16:23;;;;;;;160.75;43.65;;;;;;;6.49;61.94;100934.09;5049657;28;20025;-73
2022/12/14 07:18:49;;;;;;;83.85;33.22;;;;;;;6.66;62.50;100941.09;5048735;28;20025;-74
2022/12/14 07:21:17;;;;;;;89.63;32.22;;;;;;;6.81;63.68;100935.69;5049602;28;20389;-74
2022/12/14 07:23:44;;;;;;;85.15;31.13;;;;;;;6.99;64.35;100939.91;5052182;28;20112;-73
2022/12/14 07:26:15;;;;;;;60.63;24.88;;;;;;;7.11;64.49;100930.25;5052472;28;20477;-75
2022/12/14 07:28:41;;;;;;;38.60;19.92;;;;;;;7.16;65.41;100938.84;5052836;28;20480;-75
2022/12/14 07:31:13;;;;;;;47.95;21.98;;;;;;;7.28;66.33;100930.06;5052844;28;20021;-74
2022/12/14 07:33:39;;;;;;;86.75;25.27;;;;;;;7.28;66.46;100923.88;5052647;28;20484;-74
2022/12/14 07:36:07;;;;;;;65.53;20.73;;;;;;;7.36;66.57;100927.78;5052385;28;20033;-75
2022/12/14 07:38:35;;;;;;;52.83;24.58;;;;;;;7.40;66.18;100926.59;5052267;28;20119;-74
2022/12/14 07:41:05;;;;;;;61.60;23.58;;;;;;;7.39;66.72;100927.56;5052292;28;20086;-74
2022/12/14 07:43:31;;;;;;;61.47;24.63;;;;;;;7.37;66.45;100934.81;5052209;28;20048;-74
2022/12/14 07:46:06;;;;;;;64.72;30.25;;;;;;;7.41;66.31;100936.34;5051815;28;20028;-73
2022/12/14 07:48:32;;;;;;;80.47;29.67;;;;;;;7.34;66.19;100929.66;5051962;28;20045;-73
2022/12/14 07:51:02;;;;;;;135.43;38.13;;;;;;;7.46;66.20;100939.59;5051962;28;20072;-74
2022/12/14 07:53:28;;;;;;;134.68;48.30;;;;;;;7.29;65.01;100934.47;5052133;28;20405;-73
2022/12/14 07:55:53;;;;;;;117.15;47.67;;;;;;;7.35;63.23;100942.09;5051926;28;20036;-74
2022/12/14 07:58:19;;;;;;;132.70;51.58;;;;;;;7.41;62.48;100947.06;5051971;28;20029;-73
2022/12/14 08:00:44;;;;;;;135.40;55.80;;;;;;;7.45;61.43;100953.94;5050335;28;20031;-74
2022/12/14 08:03:10;;;;;;;125.50;53.42;;;;;;;7.23;60.61;100904.56;5051864;28;20032;-73
2022/12/14 08:05:38;;;;;;;113.38;50.95;;;;;;;7.44;60.10;100930.81;5051646;28;20182;-73
2022/12/14 08:08:04;;;;;;;155.48;50.67;;;;;;;7.58;59.95;100946.00;5052605;28;20631;-72
2022/12/14 08:10:30;;;;;;;149.23;57.10;;;;;;;7.74;60.58;100954.75;5054210;28;20116;-73
2022/12/14 08:12:55;;;;;;;169.00;59.17;;;;;;;7.84;60.19;100922.88;5054772;28;20021;-73
2022/12/14 08:15:21;;;;;;;148.25;56.38;;;;;;;7.92;60.07;100920.59;5052012;28;20041;-74
2022/12/14 08:17:46;;;;;;;162.20;54.72;;;;;;;8.01;60.03;100934.19;5051608;28;20025;-74
2022/12/14 08:20:11;;;;;;;159.13;55.08;;;;;;;7.91;59.67;100926.88;5051697;28;20656;-74
2022/12/14 08:22:37;;;;;;;144.18;48.67;;;;;;;7.95;60.38;100921.22;5052057;28;20025;-73
2022/12/14 08:25:02;;;;;;;82.78;35.53;;;;;;;7.69;62.45;100887.28;5051438;28;20031;-75
2022/12/14 08:27:29;;;;;;;57.17;28.55;;;;;;;7.72;64.12;100886.19;5051348;28;20021;-72
2022/12/14 08:29:55;;;;;;;61.35;25.50;;;;;;;7.86;65.56;100899.56;5051284;28;20056;-74
2022/12/14 08:32:20;;;;;;;52.58;23.40;;;;;;;8.12;66.05;100922.78;5051074;28;20063;-73
2022/12/14 08:34:46;;;;;;;53.72;23.10;;;;;;;8.17;66.23;100916.16;5050949;28;20064;-73
2022/12/14 08:37:11;;;;;;;45.03;21.50;;;;;;;8.28;66.69;100919.97;5050871;28;20404;-74
2022/12/14 08:39:37;;;;;;;37.03;20.85;;;;;;;8.25;66.97;100912.97;5052053;28;20029;-75
2022/12/14 08:42:02;;;;;;;62.35;25.02;;;;;;;8.22;66.65;100883.72;5051226;28;20031;-74
2022/12/14 08:44:27;;;;;;;53.38;23.88;;;;;;;8.46;67.04;100919.59;5049369;28;20048;-75
2022/12/14 08:46:53;;;;;;;48.72;21.63;;;;;;;8.51;66.78;100905.88;5049570;28;20025;-73
2022/12/14 08:49:18;;;;;;;64.25;25.77;;;;;;;8.68;66.53;100929.72;5050937;28;20040;-74
2022/12/14 08:51:44;;;;;;;68.72;26.30;;;;;;;8.62;66.94;100919.41;5050711;28;20063;-76
2022/12/14 08:54:10;;;;;;;40.90;20.33;;;;;;;8.57;67.16;100918.84;5050853;28;20025;-74
2022/12/14 08:56:35;;;;;;;72.47;25.00;;;;;;;8.81;66.54;100911.78;5050638;28;20033;-74
2022/12/14 08:59:00;;;;;;;43.80;25.23;;;;;;;8.80;66.54;100911.91;5050872;28;20025;-73
2022/12/14 09:01:28;;;;;;;54.97;23.98;;;;;;;8.82;66.28;100907.28;5050666;28;20028;-73
2022/12/14 09:03:54;;;;;;;52.63;25.10;;;;;;;8.55;66.59;100868.03;5050508;28;20025;-74
2022/12/14 09:06:23;;;;;;;48.65;23.52;;;;;;;8.86;66.32;100904.31;5051469;28;20055;-74
2022/12/14 09:08:49;;;;;;;51.75;23.33;;;;;;;8.91;66.07;100917.38;5051508;28;20029;-74
2022/12/14 09:11:17;;;;;;;47.97;20.17;;;;;;;8.95;65.85;100908.16;5050736;28;20029;-73
2022/12/14 09:13:43;;;;;;;33.47;17.55;;;;;;;8.96;66.00;100909.91;5051891;28;20078;-72
2022/12/14 09:16:17;;;;;;;32.70;15.32;;;;;;;8.97;65.32;100906.22;5053344;28;20025;-76
2022/12/14 09:18:43;;;;;;;39.38;17.35;;;;;;;9.06;64.99;100905.56;5052222;28;20111;-74
2022/12/14 09:21:10;;;;;;;33.25;17.77;;;;;;;8.99;65.22;100920.41;5050759;28;20561;-75
2022/12/14 09:23:36;;;;;;;31.90;16.15;;;;;;;8.71;65.53;100916.94;5050348;28;20021;-72
2022/12/14 09:26:07;;;;;;;28.17;16.65;;;;;;;8.96;65.95;100925.97;5050338;28;20052;-74
2022/12/14 09:28:35;;;;;;;39.10;16.92;;;;;;;9.00;65.58;100916.75;5032022;28;20044;-74
2022/12/14 09:31:07;;;;;;;31.27;17.42;;;;;;;9.24;65.27;100920.38;5049976;28;20029;-74
2022/12/14 09:33:33;;;;;;;25.05;15.60;;;;;;;9.40;64.62;100918.31;5050120;28;20033;-73
2022/12/14 09:36:28;;;;;;;42.85;18.05;;;;;;;9.44;63.83;100911.75;5051145;28;20047;-75
2022/12/14 09:38:56;;;;;;;46.20;19.98;;;;;;;9.19;64.28;100874.22;5027324;28;20033;-74
2022/12/14 09:41:32;;;;;;;36.33;16.75;;;;;;;9.09;64.16;100847.19;5010993;28;20094;-75
2022/12/14 09:44:16;;;;;;;27.98;14.88;;;;;;;9.35;63.32;100896.31;5010517;28;20477;-73
2022/12/14 09:47:03;;;;;;;35.10;14.45;;;;;;;9.33;63.54;100892.88;5027543;28;20121;-75
2022/12/14 09:49:41;;;;;;;25.38;12.90;;;;;;;9.23;63.28;100875.72;5027507;28;20544;-75
2022/12/14 09:52:14;;;;;;;19.58;11.95;;;;;;;9.27;63.37;100887.94;5011391;28;20079;-74
2022/12/14 09:54:42;;;;;;;31.77;13.48;;;;;;;9.22;63.56;100877.56;5027266;28;20037;-76
2022/12/14 09:57:26;;;;;;;33.22;16.13;;;;;;;9.27;64.05;100861.09;5010313;28;20045;-74
2022/12/14 09:59:53;;;;;;;32.30;16.40;;;;;;;9.35;64.02;100864.13;5026790;28;20580;-73
2022/12/14 10:02:30;;;;;;;61.15;18.10;;;;;;;9.49;64.11;100863.09;5026837;28;20052;-73
2022/12/14 10:05:31;;;;;;;23.67;12.23;;;;;;;9.49;64.01;100861.25;5027280;28;20464;-74
2022/12/14 10:08:17;;;;;;;27.65;11.65;;;;;;;9.42;62.28;100853.78;5026860;28;20116;-72
2022/12/14 10:11:15;;;;;;;25.50;9.98;;;;;;;9.45;61.96;100867.00;5027478;28;20148;-73
2022/12/14 10:14:19;;;;;;;25.77;12.13;;;;;;;9.51;61.61;100856.63;4949177;29;20059;-74
2022/12/14 10:17:14;;;;;;;22.90;12.85;;;;;;;9.32;62.13;100824.06;4989645;28;20077;-76
2022/12/14 10:19:49;;;;;;;42.90;11.52;;;;;;;9.42;61.37;100846.56;4973635;28;20077;-73
2022/12/14 10:22:19;;;;;;;15.40;7.75;;;;;;;9.49;61.52;100838.94;4989912;28;20037;-72
2022/12/14 10:25:19;;;;;;;50.88;10.43;;;;;;;9.55;61.10;100849.22;4988368;28;20038;-73
2022/12/14 10:27:54;;;;;;;15.70;7.10;;;;;;;9.70;60.83;100857.00;4990149;28;20026;-73
2022/12/14 10:30:20;;;;;;;15.02;6.32;;;;;;;9.65;59.99;100851.13;4995650;28;20585;-75
2022/12/14 10:32:55;;;;;;;15.55;7.03;;;;;;;9.68;60.16;100834.78;4990990;28;20092;-75
2022/12/14 10:35:42;;;;;;;19.20;7.45;;;;;;;9.98;59.64;100857.63;4987724;28;20038;-74
2022/12/14 10:38:26;;;;;;;20.55;7.00;;;;;;;10.09;59.19;100850.47;4987668;28;20050;-74
2022/12/14 10:41:04;;;;;;;17.65;6.63;;;;;;;10.40;58.56;100865.13;4987540;28;20402;-74
2022/12/14 10:43:50;;;;;;;10.48;6.60;;;;;;;10.38;57.96;100862.59;4987378;28;20669;-74
2022/12/14 10:46:36;;;;;;;23.05;8.88;;;;;;;10.31;58.11;100852.41;4987161;28;20034;-74
2022/12/14 10:49:27;;;;;;;11.48;5.95;;;;;;;10.40;57.13;100851.69;4987438;28;20042;-72
2022/12/14 10:52:02;;;;;;;21.58;7.18;;;;;;;10.28;57.79;100844.56;5049351;28;20087;-74
2022/12/14 10:54:32;;;;;;;13.30;6.55;;;;;;;10.42;57.76;100836.31;5048816;28;20025;-72
2022/12/14 10:56:58;;;;;;;14.65;5.22;;;;;;;10.45;57.65;100828.03;5052801;28;20028;-75
2022/12/14 10:59:28;;;;;;;28.92;7.13;;;;;;;10.57;57.34;100823.50;5053149;28;20450;-76
2022/12/14 11:02:06;;;;;;;21.95;7.45;;;;;;;10.37;57.31;100825.91;5053792;28;20029;-73
2022/12/14 11:04:38;;;;;;;12.40;6.18;;;;;;;10.27;57.52;100830.28;5052809;28;20025;-75
2022/12/14 11:07:11;;;;;;;26.95;6.50;;;;;;;10.21;57.89;100837.97;5052837;28;20036;-74
2022/12/14 11:09:37;;;;;;;12.32;5.93;;;;;;;10.13;57.71;100840.34;5052810;28;20071;-73
2022/12/14 11:12:07;;;;;;;33.10;8.20;;;;;;;10.11;57.97;100836.91;5053037;28;20040;-74
2022/12/14 11:14:35;;;;;;;23.00;6.40;;;;;;;10.22;58.03;100834.28;5052699;28;20461;-73
2022/12/14 11:17:01;;;;;;;24.50;6.13;;;;;;;10.19;57.87;100834.53;5052581;28;20039;-73
2022/12/14 11:19:28;;;;;;;15.55;6.88;;;;;;;10.18;57.96;100838.22;5052547;28;20442;-74
2022/12/14 11:22:13;;;;;;;13.70;6.55;;;;;;;10.16;57.76;100834.75;5051656;28;20057;-73
2022/12/14 11:24:45;;;;;;;9.25;6.15;;;;;;;10.12;57.88;100817.16;5054970;28;20029;-75
2022/12/14 11:27:15;;;;;;;21.17;6.45;;;;;;;10.07;57.97;100813.94;5056074;28;20053;-74
2022/12/14 11:29:44;;;;;;;18.58;6.75;;;;;;;10.14;58.49;100810.72;5054142;28;20082;-75
2022/12/14 11:32:18;;;;;;;23.73;7.30;;;;;;;10.00;58.47;100796.59;5052457;28;20143;-75
2022/12/14 11:34:51;;;;;;;11.68;6.10;;;;;;;10.02;58.66;100806.25;5052561;28;20048;-74
2022/12/14 11:37:20;;;;;;;13.52;6.75;;;;;;;9.92;58.91;100798.97;5052184;28;20036;-74
2022/12/14 11:39:51;;;;;;;11.60;6.03;;;;;;;9.81;59.33;100803.31;5052271;28;20029;-74
2022/12/14 11:42:18;;;;;;;8.50;5.95;;;;;;;9.92;59.62;100809.72;5051925;28;20052;-74
2022/12/14 11:44:46;;;;;;;14.63;7.88;;;;;;;10.18;59.18;100800.59;5052009;28;20094;-73
2022/12/14 11:47:14;;;;;;;11.35;6.28;;;;;;;10.28;58.79;100815.00;5052104;28;20112;-73
2022/12/14 11:49:40;;;;;;;16.15;5.78;;;;;;;10.36;58.13;100809.91;5051957;28;20044;-73
2022/12/14 11:52:08;;;;;;;20.85;7.20;;;;;;;10.22;58.80;100812.78;5069204;28;20516;-74